LHBP 190100Z 00000KT CAVOK M06/M06 Q1021 NOSIG        

LHDC 182345Z 34005KT 8000 NSC M02/M04 Q1020 NOSIG        

LHKE 190045Z 27002KT CAVOK M06/M08 Q1021 NOSIG RMK BLU        

LHPA 190045Z 00000KT CAVOK M06/M07 Q1022 NOSIG RMK BLU        

LHPR 190045Z AUTO 29004KT 260V320 CAVOK M03/M06 Q1021 RMK BLU        

LHSN 190045Z 32002KT CAVOK M04/M04 Q1020 NOSIG RMK BLU        

LHUD 190045Z 33004KT CAVOK M00/M02 Q1021